CheckWX is a tool to help pilots better visualize weather data.  It is not intended as a substitute for an official pre-flight weather briefing.

08:05:57 UTC

SVJC TAF
Josefa Camejo International Airport
Paraguaná, Venezuela
TAF SVJC 190400Z 1906/2006 36002KT 9999 SCT013 BKN100 TX31/17Z TN24/08Z BECMG 1906/1910 14015KT 9999 SCT016

Mar-19@
06:00 UTC

Mar-19 @ 06:00 UTC

Mar-20@
06:00 UTC

Mar-20 @ 06:00 UTC

TAF SVJC 190400Z 1906/2006 36002KT 9999 SCT013 BKN100 TX31/17Z TN24/08Z
Wind
  • 360° at 2 KTS
Cloud Levels
  • Scattered at 1,300' AGL
  • Broken at 10,000' AGL

Mar-19@
06:00 UTC

Mar-19 @ 06:00 UTC

Mar-20@
06:00 UTC

Mar-20 @ 06:00 UTC

BECMG 1906/1910 14015KT 9999 SCT016

Becoming

Becoming Conditions expected by Tue, Mar 19, 2019 @ 10:00 UTC

Wind
  • 140° at 15 KTS
Cloud Levels
  • Scattered at 1,600' AGL